sensor_id;sensor_type;location;lat;lon;timestamp;noise_LAeq;noise_LA_min;noise_LA_max;noise_LA01;noise_LA95
40465;Laerm;30489;48.982;8.394;2023-02-28T00:01:36;41.62;40.23;42.82;;
40465;Laerm;30489;48.982;8.394;2023-02-28T00:03:47;41.61;40.53;42.65;;
40465;Laerm;30489;48.982;8.394;2023-02-28T00:05:57;41.62;40.43;42.71;;
40465;Laerm;30489;48.982;8.394;2023-02-28T00:08:07;41.62;40.43;42.82;;
40465;Laerm;30489;48.982;8.394;2023-02-28T00:10:19;41.61;40.18;42.59;;
40465;Laerm;30489;48.982;8.394;2023-02-28T00:12:30;41.61;40.23;42.71;;
40465;Laerm;30489;48.982;8.394;2023-02-28T00:14:41;41.60;40.23;42.76;;
40465;Laerm;30489;48.982;8.394;2023-02-28T00:16:51;41.59;40.03;42.88;;
40465;Laerm;30489;48.982;8.394;2023-02-28T00:19:01;41.60;40.13;42.65;;
40465;Laerm;30489;48.982;8.394;2023-02-28T00:21:11;41.58;40.23;42.76;;
40465;Laerm;30489;48.982;8.394;2023-02-28T00:23:22;41.58;40.43;42.71;;
40465;Laerm;30489;48.982;8.394;2023-02-28T00:25:32;41.58;40.33;42.65;;
40465;Laerm;30489;48.982;8.394;2023-02-28T00:27:43;41.56;40.13;42.53;;
40465;Laerm;30489;48.982;8.394;2023-02-28T00:29:53;41.57;40.13;42.76;;
40465;Laerm;30489;48.982;8.394;2023-02-28T00:32:04;41.56;40.13;42.59;;
40465;Laerm;30489;48.982;8.394;2023-02-28T00:34:15;41.55;40.23;42.53;;
40465;Laerm;30489;48.982;8.394;2023-02-28T00:36:25;41.56;40.03;42.53;;
40465;Laerm;30489;48.982;8.394;2023-02-28T00:38:35;41.56;40.33;42.71;;
40465;Laerm;30489;48.982;8.394;2023-02-28T00:40:46;41.54;40.33;42.65;;
40465;Laerm;30489;48.982;8.394;2023-02-28T00:42:56;41.55;40.23;42.76;;
40465;Laerm;30489;48.982;8.394;2023-02-28T00:45:07;41.54;40.23;42.71;;
40465;Laerm;30489;48.982;8.394;2023-02-28T00:47:18;41.54;40.13;42.59;;
40465;Laerm;30489;48.982;8.394;2023-02-28T00:49:28;41.53;40.13;42.53;;
40465;Laerm;30489;48.982;8.394;2023-02-28T00:51:38;41.54;40.13;42.64;;
40465;Laerm;30489;48.982;8.394;2023-02-28T00:53:49;41.52;40.13;42.65;;
40465;Laerm;30489;48.982;8.394;2023-02-28T00:55:59;41.52;40.23;42.65;;
40465;Laerm;30489;48.982;8.394;2023-02-28T00:58:10;41.51;40.23;42.47;;
40465;Laerm;30489;48.982;8.394;2023-02-28T01:00:20;41.51;40.13;42.76;;
40465;Laerm;30489;48.982;8.394;2023-02-28T01:02:30;41.50;40.23;42.71;;
40465;Laerm;30489;48.982;8.394;2023-02-28T01:04:41;41.50;40.23;42.65;;
40465;Laerm;30489;48.982;8.394;2023-02-28T01:06:51;41.51;40.33;42.59;;
40465;Laerm;30489;48.982;8.394;2023-02-28T01:09:02;41.50;40.33;42.88;;
40465;Laerm;30489;48.982;8.394;2023-02-28T01:11:13;41.49;40.03;42.59;;
40465;Laerm;30489;48.982;8.394;2023-02-28T01:13:24;41.50;40.33;42.59;;
40465;Laerm;30489;48.982;8.394;2023-02-28T01:15:35;41.50;40.23;42.59;;
40465;Laerm;30489;48.982;8.394;2023-02-28T01:17:45;41.49;40.23;42.71;;
40465;Laerm;30489;48.982;8.394;2023-02-28T01:19:55;41.49;40.23;42.71;;
40465;Laerm;30489;48.982;8.394;2023-02-28T01:22:06;41.49;40.08;42.53;;
40465;Laerm;30489;48.982;8.394;2023-02-28T01:24:16;41.49;40.23;42.71;;
40465;Laerm;30489;48.982;8.394;2023-02-28T01:26:26;41.48;40.23;42.59;;
40465;Laerm;30489;48.982;8.394;2023-02-28T01:28:37;41.48;40.03;42.65;;
40465;Laerm;30489;48.982;8.394;2023-02-28T01:30:47;41.48;40.23;42.53;;
40465;Laerm;30489;48.982;8.394;2023-02-28T01:32:58;41.47;40.23;42.59;;
40465;Laerm;30489;48.982;8.394;2023-02-28T01:35:08;41.46;40.03;42.65;;
40465;Laerm;30489;48.982;8.394;2023-02-28T01:37:19;41.46;40.03;42.59;;
40465;Laerm;30489;48.982;8.394;2023-02-28T01:39:29;41.46;40.03;42.59;;
40465;Laerm;30489;48.982;8.394;2023-02-28T01:41:39;41.45;39.99;42.88;;
40465;Laerm;30489;48.982;8.394;2023-02-28T01:43:55;41.45;40.13;42.65;;
40465;Laerm;30489;48.982;8.394;2023-02-28T01:46:05;41.44;40.08;42.65;;
40465;Laerm;30489;48.982;8.394;2023-02-28T01:48:16;41.43;40.03;42.71;;
40465;Laerm;30489;48.982;8.394;2023-02-28T01:50:28;41.41;39.99;42.47;;
40465;Laerm;30489;48.982;8.394;2023-02-28T01:52:39;41.42;39.92;42.59;;
40465;Laerm;30489;48.982;8.394;2023-02-28T01:54:51;41.40;40.23;42.65;;
40465;Laerm;30489;48.982;8.394;2023-02-28T01:57:13;41.39;40.03;42.53;;
40465;Laerm;30489;48.982;8.394;2023-02-28T01:59:45;41.38;39.92;42.53;;
40465;Laerm;30489;48.982;8.394;2023-02-28T02:02:01;41.38;40.13;42.53;;
40465;Laerm;30489;48.982;8.394;2023-02-28T02:04:11;41.35;39.81;42.47;;
40465;Laerm;30489;48.982;8.394;2023-02-28T02:06:22;41.35;40.03;42.41;;
40465;Laerm;30489;48.982;8.394;2023-02-28T02:08:33;41.33;39.81;42.41;;
40465;Laerm;30489;48.982;8.394;2023-02-28T02:15:17;41.29;39.92;42.41;;
40465;Laerm;30489;48.982;8.394;2023-02-28T02:17:38;41.28;39.81;42.29;;
40465;Laerm;30489;48.982;8.394;2023-02-28T02:29:06;41.22;39.70;42.24;;
40465;Laerm;30489;48.982;8.394;2023-02-28T02:36:10;41.19;39.70;42.41;;
40465;Laerm;30489;48.982;8.394;2023-02-28T02:40:43;41.17;39.81;42.35;;
40465;Laerm;30489;48.982;8.394;2023-02-28T02:45:09;41.15;39.81;42.29;;
40465;Laerm;30489;48.982;8.394;2023-02-28T02:47:20;41.14;39.81;42.41;;
40465;Laerm;30489;48.982;8.394;2023-02-28T02:49:35;41.14;39.81;42.53;;
40465;Laerm;30489;48.982;8.394;2023-02-28T02:51:46;41.13;39.58;42.35;;
40465;Laerm;30489;48.982;8.394;2023-02-28T02:53:59;41.11;39.81;42.35;;
40465;Laerm;30489;48.982;8.394;2023-02-28T02:56:10;41.10;39.70;42.29;;
40465;Laerm;30489;48.982;8.394;2023-02-28T02:58:25;41.09;39.58;42.16;;
40465;Laerm;30489;48.982;8.394;2023-02-28T03:00:41;41.09;39.70;42.22;;
40465;Laerm;30489;48.982;8.394;2023-02-28T03:02:54;41.09;39.89;42.35;;
40465;Laerm;30489;48.982;8.394;2023-02-28T03:05:07;41.07;39.92;42.22;;
40465;Laerm;30489;48.982;8.394;2023-02-28T03:07:18;41.07;39.34;42.29;;
40465;Laerm;30489;48.982;8.394;2023-02-28T03:09:28;41.06;39.81;42.35;;
40465;Laerm;30489;48.982;8.394;2023-02-28T03:11:39;41.05;39.58;42.29;;
40465;Laerm;30489;48.982;8.394;2023-02-28T03:18:36;41.04;39.58;42.35;;
40465;Laerm;30489;48.982;8.394;2023-02-28T03:23:20;41.04;39.46;42.35;;
40465;Laerm;30489;48.982;8.394;2023-02-28T03:27:47;41.04;39.58;42.16;;
40465;Laerm;30489;48.982;8.394;2023-02-28T03:30:00;41.04;39.46;42.16;;
40465;Laerm;30489;48.982;8.394;2023-02-28T03:32:22;41.04;39.58;42.35;;
40465;Laerm;30489;48.982;8.394;2023-02-28T03:34:37;41.05;39.58;42.41;;
40465;Laerm;30489;48.982;8.394;2023-02-28T03:36:49;41.05;39.70;42.35;;
40465;Laerm;30489;48.982;8.394;2023-02-28T03:39:04;41.05;39.81;42.47;;
40465;Laerm;30489;48.982;8.394;2023-02-28T03:41:20;41.07;39.46;42.22;;
40465;Laerm;30489;48.982;8.394;2023-02-28T03:43:32;41.06;39.68;42.29;;
40465;Laerm;30489;48.982;8.394;2023-02-28T03:45:44;41.07;39.81;42.22;;
40465;Laerm;30489;48.982;8.394;2023-02-28T03:48:05;41.06;39.78;42.35;;
40465;Laerm;30489;48.982;8.394;2023-02-28T03:50:18;41.06;39.92;42.16;;
40465;Laerm;30489;48.982;8.394;2023-02-28T03:52:31;41.07;39.70;42.47;;
40465;Laerm;30489;48.982;8.394;2023-02-28T03:54:45;41.06;39.70;42.29;;
40465;Laerm;30489;48.982;8.394;2023-02-28T03:57:03;41.06;39.70;42.47;;
40465;Laerm;30489;48.982;8.394;2023-02-28T03:59:24;41.08;39.58;42.29;;
40465;Laerm;30489;48.982;8.394;2023-02-28T04:01:45;41.08;39.57;42.29;;
40465;Laerm;30489;48.982;8.394;2023-02-28T04:03:57;41.08;39.81;42.16;;
40465;Laerm;30489;48.982;8.394;2023-02-28T04:06:08;41.09;39.81;42.22;;
40465;Laerm;30489;48.982;8.394;2023-02-28T04:08:22;41.09;39.70;42.29;;
40465;Laerm;30489;48.982;8.394;2023-02-28T04:10:33;41.10;39.58;42.22;;
40465;Laerm;30489;48.982;8.394;2023-02-28T04:12:43;41.10;39.92;42.22;;
40465;Laerm;30489;48.982;8.394;2023-02-28T04:14:53;41.08;39.70;42.35;;
40465;Laerm;30489;48.982;8.394;2023-02-28T04:17:04;41.08;39.81;42.47;;
40465;Laerm;30489;48.982;8.394;2023-02-28T04:19:14;41.08;39.70;42.29;;
40465;Laerm;30489;48.982;8.394;2023-02-28T04:21:25;41.10;39.70;42.36;;
40465;Laerm;30489;48.982;8.394;2023-02-28T04:23:35;41.11;39.81;42.36;;
40465;Laerm;30489;48.982;8.394;2023-02-28T04:25:45;41.11;39.70;42.22;;
40465;Laerm;30489;48.982;8.394;2023-02-28T04:27:55;41.14;39.58;42.29;;
40465;Laerm;30489;48.982;8.394;2023-02-28T04:30:06;41.13;39.81;42.35;;
40465;Laerm;30489;48.982;8.394;2023-02-28T04:32:16;41.17;39.81;42.29;;
40465;Laerm;30489;48.982;8.394;2023-02-28T04:34:27;41.15;39.81;42.35;;
40465;Laerm;30489;48.982;8.394;2023-02-28T04:36:38;41.15;39.70;42.41;;
40465;Laerm;30489;48.982;8.394;2023-02-28T04:38:49;41.17;39.46;42.29;;
40465;Laerm;30489;48.982;8.394;2023-02-28T04:40:59;41.15;39.70;42.29;;
40465;Laerm;30489;48.982;8.394;2023-02-28T04:43:10;41.17;39.70;42.47;;
40465;Laerm;30489;48.982;8.394;2023-02-28T04:45:20;41.17;39.81;42.41;;
40465;Laerm;30489;48.982;8.394;2023-02-28T04:47:30;41.17;39.81;42.41;;
40465;Laerm;30489;48.982;8.394;2023-02-28T04:49:41;41.19;39.92;42.35;;
40465;Laerm;30489;48.982;8.394;2023-02-28T04:51:51;41.20;40.03;42.47;;
40465;Laerm;30489;48.982;8.394;2023-02-28T04:54:02;41.19;39.81;42.47;;
40465;Laerm;30489;48.982;8.394;2023-02-28T04:56:13;41.18;39.46;42.47;;
40465;Laerm;30489;48.982;8.394;2023-02-28T04:58:24;41.18;39.92;42.41;;
40465;Laerm;30489;48.982;8.394;2023-02-28T05:00:34;41.19;39.81;42.22;;
40465;Laerm;30489;48.982;8.394;2023-02-28T05:02:45;41.21;39.92;42.53;;
40465;Laerm;30489;48.982;8.394;2023-02-28T05:04:55;41.19;40.03;42.41;;
40465;Laerm;30489;48.982;8.394;2023-02-28T05:07:05;41.18;40.03;42.35;;
40465;Laerm;30489;48.982;8.394;2023-02-28T05:09:16;41.19;39.92;42.29;;
40465;Laerm;30489;48.982;8.394;2023-02-28T05:11:27;41.18;39.70;42.65;;
40465;Laerm;30489;48.982;8.394;2023-02-28T05:13:44;41.19;39.81;42.22;;
40465;Laerm;30489;48.982;8.394;2023-02-28T05:15:55;41.18;39.70;42.35;;
40465;Laerm;30489;48.982;8.394;2023-02-28T05:18:05;41.16;39.92;42.47;;
40465;Laerm;30489;48.982;8.394;2023-02-28T05:20:16;41.18;40.03;42.35;;
40465;Laerm;30489;48.982;8.394;2023-02-28T05:22:27;41.17;39.70;42.41;;
40465;Laerm;30489;48.982;8.394;2023-02-28T05:24:37;41.16;39.78;42.30;;
40465;Laerm;30489;48.982;8.394;2023-02-28T05:26:47;41.16;39.70;42.22;;
40465;Laerm;30489;48.982;8.394;2023-02-28T05:28:58;41.16;39.70;42.24;;
40465;Laerm;30489;48.982;8.394;2023-02-28T05:31:12;41.15;39.92;42.29;;
40465;Laerm;30489;48.982;8.394;2023-02-28T05:33:22;41.16;39.70;42.29;;
40465;Laerm;30489;48.982;8.394;2023-02-28T05:35:32;41.15;39.70;42.16;;
40465;Laerm;30489;48.982;8.394;2023-02-28T05:37:43;41.15;39.70;42.35;;
40465;Laerm;30489;48.982;8.394;2023-02-28T05:39:53;41.13;39.81;42.41;;
40465;Laerm;30489;48.982;8.394;2023-02-28T05:42:03;41.13;39.81;42.53;;
40465;Laerm;30489;48.982;8.394;2023-02-28T05:44:14;41.12;39.46;42.22;;
40465;Laerm;30489;48.982;8.394;2023-02-28T05:46:25;41.12;39.70;42.41;;
40465;Laerm;30489;48.982;8.394;2023-02-28T05:48:35;41.12;39.58;42.41;;
40465;Laerm;30489;48.982;8.394;2023-02-28T05:50:46;41.12;39.34;42.29;;
40465;Laerm;30489;48.982;8.394;2023-02-28T05:52:57;41.12;39.70;42.29;;
40465;Laerm;30489;48.982;8.394;2023-02-28T05:55:07;41.12;39.70;42.35;;
40465;Laerm;30489;48.982;8.394;2023-02-28T05:57:18;41.10;39.81;42.22;;
40465;Laerm;30489;48.982;8.394;2023-02-28T05:59:28;41.10;39.70;42.35;;
40465;Laerm;30489;48.982;8.394;2023-02-28T06:01:42;41.11;39.46;42.47;;
40465;Laerm;30489;48.982;8.394;2023-02-28T06:04:01;41.08;39.81;42.16;;
40465;Laerm;30489;48.982;8.394;2023-02-28T06:06:11;41.08;39.68;42.47;;
40465;Laerm;30489;48.982;8.394;2023-02-28T06:08:22;41.09;39.70;42.41;;
40465;Laerm;30489;48.982;8.394;2023-02-28T06:10:35;41.07;39.92;42.22;;
40465;Laerm;30489;48.982;8.394;2023-02-28T06:12:46;41.08;39.58;42.29;;
40465;Laerm;30489;48.982;8.394;2023-02-28T06:14:56;41.09;39.70;42.22;;
40465;Laerm;30489;48.982;8.394;2023-02-28T06:17:06;41.12;39.81;42.47;;
40465;Laerm;30489;48.982;8.394;2023-02-28T06:19:17;41.09;39.70;42.47;;
40465;Laerm;30489;48.982;8.394;2023-02-28T06:21:27;41.08;39.46;42.29;;
40465;Laerm;30489;48.982;8.394;2023-02-28T06:23:38;41.07;39.46;42.47;;
40465;Laerm;30489;48.982;8.394;2023-02-28T06:25:48;41.08;39.70;42.47;;
40465;Laerm;30489;48.982;8.394;2023-02-28T06:27:59;41.09;39.58;42.22;;
40465;Laerm;30489;48.982;8.394;2023-02-28T06:30:10;41.10;39.81;42.09;;
40465;Laerm;30489;48.982;8.394;2023-02-28T06:32:21;41.11;39.81;42.35;;
40465;Laerm;30489;48.982;8.394;2023-02-28T06:34:31;41.11;39.70;42.16;;
40465;Laerm;30489;48.982;8.394;2023-02-28T06:36:43;41.11;39.81;42.22;;
40465;Laerm;30489;48.982;8.394;2023-02-28T06:38:54;41.13;39.70;42.29;;
40465;Laerm;30489;48.982;8.394;2023-02-28T06:41:06;41.13;39.81;42.41;;
40465;Laerm;30489;48.982;8.394;2023-02-28T06:43:16;41.32;39.81;42.53;;
40465;Laerm;30489;48.982;8.394;2023-02-28T06:45:27;41.37;40.13;43.39;;
40465;Laerm;30489;48.982;8.394;2023-02-28T06:47:38;41.31;39.70;42.76;;
40465;Laerm;30489;48.982;8.394;2023-02-28T06:49:49;41.43;40.13;42.93;;
40465;Laerm;30489;48.982;8.394;2023-02-28T06:51:59;41.37;40.03;42.36;;
40465;Laerm;30489;48.982;8.394;2023-02-28T06:54:10;41.44;40.13;44.11;;
40465;Laerm;30489;48.982;8.394;2023-02-28T06:56:20;41.40;40.03;42.76;;
40465;Laerm;30489;48.982;8.394;2023-02-28T06:58:31;41.44;39.70;43.19;;
40465;Laerm;30489;48.982;8.394;2023-02-28T07:00:41;41.39;40.03;42.53;;
40465;Laerm;30489;48.982;8.394;2023-02-28T07:02:52;41.36;40.13;42.53;;
40465;Laerm;30489;48.982;8.394;2023-02-28T07:05:05;41.30;39.57;42.47;;
40465;Laerm;30489;48.982;8.394;2023-02-28T07:07:15;41.48;40.13;42.53;;
40465;Laerm;30489;48.982;8.394;2023-02-28T07:09:26;41.49;40.03;43.24;;
40465;Laerm;30489;48.982;8.394;2023-02-28T07:11:40;41.48;39.58;42.71;;
40465;Laerm;30489;48.982;8.394;2023-02-28T07:13:51;41.49;40.23;42.53;;
40465;Laerm;30489;48.982;8.394;2023-02-28T07:16:03;41.45;40.13;42.53;;
40465;Laerm;30489;48.982;8.394;2023-02-28T07:18:13;41.45;40.03;42.59;;
40465;Laerm;30489;48.982;8.394;2023-02-28T07:20:24;41.49;40.13;42.59;;
40465;Laerm;30489;48.982;8.394;2023-02-28T07:22:34;41.42;39.81;42.65;;
40465;Laerm;30489;48.982;8.394;2023-02-28T07:24:44;41.45;39.81;43.29;;
40465;Laerm;30489;48.982;8.394;2023-02-28T07:26:55;41.53;39.92;43.04;;
40465;Laerm;30489;48.982;8.394;2023-02-28T07:29:05;41.56;40.43;42.71;;
40465;Laerm;30489;48.982;8.394;2023-02-28T07:31:15;41.52;40.13;42.71;;
40465;Laerm;30489;48.982;8.394;2023-02-28T07:33:26;41.52;40.23;42.65;;
40465;Laerm;30489;48.982;8.394;2023-02-28T07:35:37;41.40;40.13;42.65;;
40465;Laerm;30489;48.982;8.394;2023-02-28T07:37:47;41.39;40.13;49.97;;
40465;Laerm;30489;48.982;8.394;2023-02-28T07:39:57;41.64;40.13;43.39;;
40465;Laerm;30489;48.982;8.394;2023-02-28T07:42:08;41.97;40.43;45.80;;
40465;Laerm;30489;48.982;8.394;2023-02-28T07:44:21;41.88;40.62;44.19;;
40465;Laerm;30489;48.982;8.394;2023-02-28T07:46:31;41.80;40.62;42.88;;
40465;Laerm;30489;48.982;8.394;2023-02-28T07:48:45;41.83;40.53;43.04;;
40465;Laerm;30489;48.982;8.394;2023-02-28T07:50:56;41.80;40.33;42.93;;
40465;Laerm;30489;48.982;8.394;2023-02-28T07:53:07;41.85;40.33;43.14;;
40465;Laerm;30489;48.982;8.394;2023-02-28T07:55:17;41.75;40.43;43.86;;
40465;Laerm;30489;48.982;8.394;2023-02-28T07:57:27;41.74;40.33;43.19;;
40465;Laerm;30489;48.982;8.394;2023-02-28T07:59:38;41.86;40.62;43.04;;
40465;Laerm;30489;48.982;8.394;2023-02-28T08:01:49;41.83;40.43;42.88;;
40465;Laerm;30489;48.982;8.394;2023-02-28T08:04:00;41.86;40.71;42.98;;
40465;Laerm;30489;48.982;8.394;2023-02-28T08:06:15;41.84;40.13;42.98;;
40465;Laerm;30489;48.982;8.394;2023-02-28T08:08:26;41.88;40.62;43.04;;
40465;Laerm;30489;48.982;8.394;2023-02-28T08:10:39;41.91;40.62;43.14;;
40465;Laerm;30489;48.982;8.394;2023-02-28T08:12:49;41.67;40.13;43.09;;
40465;Laerm;30489;48.982;8.394;2023-02-28T08:15:00;41.48;40.03;42.53;;
40465;Laerm;30489;48.982;8.394;2023-02-28T08:17:10;41.91;40.43;47.91;;
40465;Laerm;30489;48.982;8.394;2023-02-28T08:19:21;41.71;40.13;46.93;;
40465;Laerm;30489;48.982;8.394;2023-02-28T08:21:31;41.53;40.13;42.71;;
40465;Laerm;30489;48.982;8.394;2023-02-28T08:23:42;41.53;40.13;42.88;;
40465;Laerm;30489;48.982;8.394;2023-02-28T08:25:56;41.56;39.99;42.76;;
40465;Laerm;30489;48.982;8.394;2023-02-28T08:28:07;41.74;40.23;43.81;;
40465;Laerm;30489;48.982;8.394;2023-02-28T08:30:17;41.85;40.62;43.44;;
40465;Laerm;30489;48.982;8.394;2023-02-28T08:32:27;41.94;40.71;43.39;;
40465;Laerm;30489;48.982;8.394;2023-02-28T08:34:38;41.92;40.33;43.90;;
40465;Laerm;30489;48.982;8.394;2023-02-28T08:36:49;41.96;40.62;44.07;;
40465;Laerm;30489;48.982;8.394;2023-02-28T08:38:59;42.10;40.53;43.49;;
40465;Laerm;30489;48.982;8.394;2023-02-28T08:41:10;42.01;40.79;43.81;;
40465;Laerm;30489;48.982;8.394;2023-02-28T08:43:21;41.96;40.43;43.19;;
40465;Laerm;30489;48.982;8.394;2023-02-28T08:45:31;42.04;40.62;44.43;;
40465;Laerm;30489;48.982;8.394;2023-02-28T08:47:42;41.97;40.53;44.94;;
40465;Laerm;30489;48.982;8.394;2023-02-28T08:49:52;42.06;40.62;44.11;;
40465;Laerm;30489;48.982;8.394;2023-02-28T08:52:03;42.13;40.71;43.94;;
40465;Laerm;30489;48.982;8.394;2023-02-28T08:54:13;42.10;40.71;49.36;;
40465;Laerm;30489;48.982;8.394;2023-02-28T08:56:27;42.01;40.71;43.44;;
40465;Laerm;30489;48.982;8.394;2023-02-28T08:58:37;42.20;40.80;55.04;;
40465;Laerm;30489;48.982;8.394;2023-02-28T09:00:47;42.19;40.80;44.23;;
40465;Laerm;30489;48.982;8.394;2023-02-28T09:02:58;42.04;40.98;44.97;;
40465;Laerm;30489;48.982;8.394;2023-02-28T09:05:08;41.99;40.53;43.90;;
40465;Laerm;30489;48.982;8.394;2023-02-28T09:07:18;42.13;40.89;44.62;;
40465;Laerm;30489;48.982;8.394;2023-02-28T09:09:28;42.24;40.63;44.43;;
40465;Laerm;30489;48.982;8.394;2023-02-28T09:11:39;41.86;40.53;48.43;;
40465;Laerm;30489;48.982;8.394;2023-02-28T09:13:49;41.67;40.23;43.94;;
40465;Laerm;30489;48.982;8.394;2023-02-28T09:16:00;41.70;40.23;47.20;;
40465;Laerm;30489;48.982;8.394;2023-02-28T09:18:11;41.70;40.43;42.76;;
40465;Laerm;30489;48.982;8.394;2023-02-28T09:20:22;41.71;40.43;46.40;;
40465;Laerm;30489;48.982;8.394;2023-02-28T09:22:33;41.72;40.53;43.39;;
40465;Laerm;30489;48.982;8.394;2023-02-28T09:24:43;41.71;40.43;45.20;;
40465;Laerm;30489;48.982;8.394;2023-02-28T09:26:54;41.69;40.53;42.71;;
40465;Laerm;30489;48.982;8.394;2023-02-28T09:29:04;41.67;40.33;42.71;;
40465;Laerm;30489;48.982;8.394;2023-02-28T09:31:22;41.68;40.33;42.71;;
40465;Laerm;30489;48.982;8.394;2023-02-28T09:33:33;41.69;40.43;42.71;;
40465;Laerm;30489;48.982;8.394;2023-02-28T09:35:44;41.69;40.23;42.71;;
40465;Laerm;30489;48.982;8.394;2023-02-28T09:37:54;41.73;40.13;42.82;;
40465;Laerm;30489;48.982;8.394;2023-02-28T09:40:05;41.73;40.43;42.71;;
40465;Laerm;30489;48.982;8.394;2023-02-28T09:42:21;41.74;40.43;42.82;;
40465;Laerm;30489;48.982;8.394;2023-02-28T09:44:39;41.72;40.33;42.88;;
40465;Laerm;30489;48.982;8.394;2023-02-28T09:46:51;41.75;40.53;43.24;;
40465;Laerm;30489;48.982;8.394;2023-02-28T09:49:08;41.83;40.62;43.39;;
40465;Laerm;30489;48.982;8.394;2023-02-28T09:53:41;41.88;40.62;43.14;;
40465;Laerm;30489;48.982;8.394;2023-02-28T09:55:51;41.87;40.43;42.98;;
40465;Laerm;30489;48.982;8.394;2023-02-28T09:58:04;41.91;40.89;42.98;;
40465;Laerm;30489;48.982;8.394;2023-02-28T10:04:59;41.97;40.62;43.09;;
40465;Laerm;30489;48.982;8.394;2023-02-28T10:07:36;41.95;40.71;42.88;;
40465;Laerm;30489;48.982;8.394;2023-02-28T10:09:50;41.93;40.80;42.98;;
40465;Laerm;30489;48.982;8.394;2023-02-28T10:12:03;41.99;40.43;44.03;;
40465;Laerm;30489;48.982;8.394;2023-02-28T10:14:21;42.03;40.80;43.94;;
40465;Laerm;30489;48.982;8.394;2023-02-28T10:20:55;42.09;40.89;43.04;;
40465;Laerm;30489;48.982;8.394;2023-02-28T10:23:14;42.05;40.89;43.14;;
40465;Laerm;30489;48.982;8.394;2023-02-28T10:25:27;42.07;40.71;43.14;;
40465;Laerm;30489;48.982;8.394;2023-02-28T10:27:38;42.12;41.06;43.54;;
40465;Laerm;30489;48.982;8.394;2023-02-28T10:32:02;42.14;40.98;43.14;;
40465;Laerm;30489;48.982;8.394;2023-02-28T10:34:13;42.14;40.89;43.09;;
40465;Laerm;30489;48.982;8.394;2023-02-28T10:36:24;42.12;40.63;43.14;;
40465;Laerm;30489;48.982;8.394;2023-02-28T10:38:35;42.14;40.62;43.44;;
40465;Laerm;30489;48.982;8.394;2023-02-28T10:40:46;42.12;40.80;43.19;;
40465;Laerm;30489;48.982;8.394;2023-02-28T10:45:22;42.15;40.71;43.19;;
40465;Laerm;30489;48.982;8.394;2023-02-28T10:47:33;42.14;40.89;43.24;;
40465;Laerm;30489;48.982;8.394;2023-02-28T10:49:48;42.14;40.89;43.14;;
40465;Laerm;30489;48.982;8.394;2023-02-28T10:52:00;42.13;40.98;43.24;;
40465;Laerm;30489;48.982;8.394;2023-02-28T10:54:44;42.13;40.71;43.19;;
40465;Laerm;30489;48.982;8.394;2023-02-28T10:59:28;42.12;40.80;43.34;;
40465;Laerm;30489;48.982;8.394;2023-02-28T11:03:50;42.12;40.89;43.29;;
40465;Laerm;30489;48.982;8.394;2023-02-28T11:06:07;42.14;40.89;43.24;;
40465;Laerm;30489;48.982;8.394;2023-02-28T11:08:21;42.14;41.06;43.24;;
40465;Laerm;30489;48.982;8.394;2023-02-28T11:10:31;42.17;40.96;43.29;;
40465;Laerm;30489;48.982;8.394;2023-02-28T11:12:44;42.17;40.80;43.14;;
40465;Laerm;30489;48.982;8.394;2023-02-28T11:14:56;42.18;40.98;43.24;;
40465;Laerm;30489;48.982;8.394;2023-02-28T11:17:13;42.18;40.89;43.14;;
40465;Laerm;30489;48.982;8.394;2023-02-28T11:19:33;42.19;41.06;43.24;;
40465;Laerm;30489;48.982;8.394;2023-02-28T11:21:52;42.19;40.89;43.24;;
40465;Laerm;30489;48.982;8.394;2023-02-28T11:24:19;42.19;40.98;43.39;;
40465;Laerm;30489;48.982;8.394;2023-02-28T11:26:39;42.20;41.06;43.19;;
40465;Laerm;30489;48.982;8.394;2023-02-28T11:28:50;42.21;41.14;43.29;;
40465;Laerm;30489;48.982;8.394;2023-02-28T11:31:17;42.22;40.98;43.24;;
40465;Laerm;30489;48.982;8.394;2023-02-28T11:35:39;43.40;40.89;47.16;;
40465;Laerm;30489;48.982;8.394;2023-02-28T11:37:50;42.33;40.80;43.39;;
40465;Laerm;30489;48.982;8.394;2023-02-28T11:40:00;42.35;41.22;43.58;;
40465;Laerm;30489;48.982;8.394;2023-02-28T11:42:31;42.34;41.22;43.54;;
40465;Laerm;30489;48.982;8.394;2023-02-28T11:47:19;42.32;41.06;43.58;;
40465;Laerm;30489;48.982;8.394;2023-02-28T11:49:32;42.33;41.14;43.49;;
40465;Laerm;30489;48.982;8.394;2023-02-28T11:54:03;42.42;40.98;46.40;;
40465;Laerm;30489;48.982;8.394;2023-02-28T11:56:31;42.44;41.22;43.72;;
40465;Laerm;30489;48.982;8.394;2023-02-28T11:58:49;42.52;41.22;49.92;;
40465;Laerm;30489;48.982;8.394;2023-02-28T12:05:31;42.42;41.30;43.44;;
40465;Laerm;30489;48.982;8.394;2023-02-28T12:07:55;42.45;41.22;43.54;;
40465;Laerm;30489;48.982;8.394;2023-02-28T12:10:22;42.44;41.22;43.55;;
40465;Laerm;30489;48.982;8.394;2023-02-28T12:17:36;42.34;40.62;43.44;;
40465;Laerm;30489;48.982;8.394;2023-02-28T12:20:00;42.45;40.98;43.58;;
40465;Laerm;30489;48.982;8.394;2023-02-28T12:22:23;42.39;41.14;43.54;;
40465;Laerm;30489;48.982;8.394;2023-02-28T12:26:52;42.38;41.14;43.81;;
40465;Laerm;30489;48.982;8.394;2023-02-28T12:29:10;42.35;41.14;43.94;;
40465;Laerm;30489;48.982;8.394;2023-02-28T12:31:29;42.30;41.14;43.29;;
40465;Laerm;30489;48.982;8.394;2023-02-28T12:33:43;42.36;40.98;44.35;;
40465;Laerm;30489;48.982;8.394;2023-02-28T12:35:58;42.36;41.14;43.58;;
40465;Laerm;30489;48.982;8.394;2023-02-28T12:38:10;42.34;40.98;43.39;;
40465;Laerm;30489;48.982;8.394;2023-02-28T12:40:23;42.38;41.06;44.03;;
40465;Laerm;30489;48.982;8.394;2023-02-28T12:42:36;42.40;40.98;43.49;;
40465;Laerm;30489;48.982;8.394;2023-02-28T12:44:51;42.40;41.14;43.54;;
40465;Laerm;30489;48.982;8.394;2023-02-28T12:47:04;42.40;40.80;45.14;;
40465;Laerm;30489;48.982;8.394;2023-02-28T12:49:16;42.33;41.06;43.29;;
40465;Laerm;30489;48.982;8.394;2023-02-28T12:51:27;42.39;40.98;43.90;;
40465;Laerm;30489;48.982;8.394;2023-02-28T12:58:19;42.30;40.80;43.68;;
40465;Laerm;30489;48.982;8.394;2023-02-28T13:00:33;42.30;40.98;43.39;;
40465;Laerm;30489;48.982;8.394;2023-02-28T13:02:58;42.28;41.14;43.44;;
40465;Laerm;30489;48.982;8.394;2023-02-28T13:07:45;42.26;40.71;43.34;;
40465;Laerm;30489;48.982;8.394;2023-02-28T13:10:00;42.27;40.89;43.34;;
40465;Laerm;30489;48.982;8.394;2023-02-28T13:12:13;42.25;41.06;43.34;;
40465;Laerm;30489;48.982;8.394;2023-02-28T13:14:35;42.26;40.80;43.34;;
40465;Laerm;30489;48.982;8.394;2023-02-28T13:19:16;42.26;40.80;43.49;;
40465;Laerm;30489;48.982;8.394;2023-02-28T13:21:28;42.21;40.80;43.29;;
40465;Laerm;30489;48.982;8.394;2023-02-28T13:26:02;42.27;40.89;44.65;;
40465;Laerm;30489;48.982;8.394;2023-02-28T13:28:13;42.24;40.71;43.37;;
40465;Laerm;30489;48.982;8.394;2023-02-28T13:33:36;42.22;40.89;45.51;;
40465;Laerm;30489;48.982;8.394;2023-02-28T13:35:42;42.24;40.89;43.34;;
40465;Laerm;30489;48.982;8.394;2023-02-28T13:37:54;42.25;40.98;43.29;;
40465;Laerm;30489;48.982;8.394;2023-02-28T13:40:26;42.27;40.98;48.00;;
40465;Laerm;30489;48.982;8.394;2023-02-28T13:47:19;42.24;40.62;44.73;;
40465;Laerm;30489;48.982;8.394;2023-02-28T13:49:30;42.25;40.80;43.54;;
40465;Laerm;30489;48.982;8.394;2023-02-28T13:51:47;42.24;40.80;43.54;;
40465;Laerm;30489;48.982;8.394;2023-02-28T13:54:00;42.24;40.98;43.34;;